createdAt,value
2023-01-19T00:01:03.174Z,-0.30
2023-01-19T00:03:30.488Z,-0.40
2023-01-19T00:05:57.692Z,-0.40
2023-01-19T00:08:24.994Z,-0.50
2023-01-19T00:10:52.451Z,-0.50
2023-01-19T00:13:19.700Z,-0.40
2023-01-19T00:15:48.285Z,-0.50
2023-01-19T00:18:15.752Z,-0.40
2023-01-19T00:20:45.361Z,-0.40
2023-01-19T00:23:12.703Z,-0.40
2023-01-19T00:25:42.601Z,-0.30
2023-01-19T00:28:11.342Z,-0.30
2023-01-19T00:30:38.792Z,-0.20
2023-01-19T00:33:07.381Z,-0.40
2023-01-19T00:35:35.540Z,-0.40
2023-01-19T00:38:03.545Z,-0.30
2023-01-19T00:40:30.763Z,-0.40
2023-01-19T00:42:58.535Z,-0.30
2023-01-19T00:45:25.942Z,-0.40
2023-01-19T00:47:57.445Z,-0.50
2023-01-19T00:50:27.758Z,-0.50
2023-01-19T00:52:56.723Z,-0.50
2023-01-19T00:55:24.658Z,-0.40
2023-01-19T00:57:51.880Z,-0.40
2023-01-19T01:00:21.056Z,-0.50
2023-01-19T01:02:49.954Z,-0.40
2023-01-19T01:05:17.805Z,-0.50
2023-01-19T01:07:47.162Z,-0.60
2023-01-19T01:10:16.764Z,-0.60
2023-01-19T01:13:20.553Z,-0.60
2023-01-19T01:15:31.544Z,-0.60
2023-01-19T01:17:58.958Z,-0.60
2023-01-19T01:20:30.235Z,-0.50
2023-01-19T01:22:59.300Z,-0.60
2023-01-19T01:25:28.725Z,-0.50
2023-01-19T01:27:56.437Z,-0.50
2023-01-19T01:30:24.134Z,-0.50
2023-01-19T01:32:51.274Z,-0.40
2023-01-19T01:35:18.589Z,-0.60
2023-01-19T01:37:45.879Z,-0.50
2023-01-19T01:40:18.135Z,-0.50
2023-01-19T01:42:45.755Z,-0.50
2023-01-19T01:45:32.977Z,-0.50
2023-01-19T01:48:06.385Z,-0.70
2023-01-19T01:50:38.038Z,-0.60
2023-01-19T01:53:12.545Z,-0.60
2023-01-19T01:55:47.052Z,-0.70
2023-01-19T01:58:16.654Z,-0.70
2023-01-19T02:01:16.494Z,-0.90
2023-01-19T02:03:45.157Z,-0.80
2023-01-19T02:06:14.071Z,-0.60
2023-01-19T02:09:06.930Z,-0.50
2023-01-19T02:11:55.013Z,-0.40
2023-01-19T02:14:22.283Z,-0.40
2023-01-19T02:16:49.541Z,-0.50
2023-01-19T02:19:24.620Z,-0.40
2023-01-19T02:21:57.103Z,-0.30
2023-01-19T02:24:25.992Z,-0.20
2023-01-19T02:26:53.548Z,-0.20
2023-01-19T02:29:23.209Z,-0.20
2023-01-19T02:31:50.559Z,-0.20
2023-01-19T02:34:20.131Z,-0.30
2023-01-19T02:36:52.670Z,-0.20
2023-01-19T02:39:23.853Z,-0.10
2023-01-19T02:41:56.087Z,-0.10
2023-01-19T02:44:24.698Z,-0.10
2023-01-19T02:46:54.491Z,-0.10
2023-01-19T02:49:21.822Z,-0.10
2023-01-19T02:51:50.009Z,0.00
2023-01-19T02:54:31.386Z,-0.10
2023-01-19T02:57:36.202Z,-0.10
2023-01-19T03:00:21.979Z,0.00
2023-01-19T03:03:06.426Z,-0.10
2023-01-19T03:05:52.315Z,-0.20
2023-01-19T03:08:33.070Z,-0.10
2023-01-19T03:11:03.812Z,-0.20
2023-01-19T03:13:42.863Z,-0.20
2023-01-19T03:16:18.417Z,-0.20
2023-01-19T03:18:51.232Z,-0.30
2023-01-19T03:21:20.046Z,-0.30
2023-01-19T03:23:49.697Z,-0.30
2023-01-19T03:26:25.194Z,-0.30
2023-01-19T03:28:57.030Z,-0.30
2023-01-19T03:31:27.864Z,-0.20
2023-01-19T03:34:00.729Z,-0.20
2023-01-19T03:36:34.288Z,-0.30
2023-01-19T03:39:04.690Z,-0.30
2023-01-19T03:41:34.553Z,-0.20
2023-01-19T03:44:05.574Z,-0.20
2023-01-19T03:46:34.249Z,-0.10
2023-01-19T03:49:01.451Z,-0.10
2023-01-19T03:51:28.714Z,-0.10
2023-01-19T03:53:55.991Z,-0.10
2023-01-19T03:56:25.205Z,0.00
2023-01-19T03:58:52.657Z,-0.10
2023-01-19T04:01:22.934Z,0.00
2023-01-19T04:03:53.271Z,0.00
2023-01-19T04:06:20.750Z,-0.10
2023-01-19T04:08:49.446Z,0.00
2023-01-19T04:11:17.422Z,0.00
2023-01-19T04:13:45.150Z,0.00
2023-01-19T04:16:12.768Z,-0.10
2023-01-19T04:18:42.328Z,-0.10
2023-01-19T04:21:09.813Z,0.00
2023-01-19T04:23:37.176Z,0.00
2023-01-19T04:26:07.079Z,0.10
2023-01-19T04:28:35.346Z,0.20
2023-01-19T04:31:03.156Z,0.10
2023-01-19T04:33:31.013Z,0.20
2023-01-19T04:35:59.877Z,0.10
2023-01-19T04:38:27.706Z,0.10
2023-01-19T04:40:55.545Z,0.20
2023-01-19T04:43:23.788Z,0.20
2023-01-19T04:45:51.477Z,0.20
2023-01-19T04:48:19.754Z,0.30
2023-01-19T04:50:47.444Z,0.40
2023-01-19T04:53:16.432Z,0.40
2023-01-19T04:55:43.544Z,0.30
2023-01-19T04:58:10.523Z,0.30
2023-01-19T05:00:37.611Z,0.40
2023-01-19T05:03:05.480Z,0.20
2023-01-19T05:05:33.336Z,0.10
2023-01-19T05:08:00.813Z,0.20
2023-01-19T05:10:29.346Z,0.20
2023-01-19T05:12:56.386Z,0.20
2023-01-19T05:15:23.831Z,0.20
2023-01-19T05:17:50.930Z,0.30
2023-01-19T05:20:18.564Z,0.40
2023-01-19T05:22:50.743Z,0.40
2023-01-19T05:25:18.316Z,0.50
2023-01-19T05:27:46.886Z,0.40
2023-01-19T05:30:14.753Z,0.50
2023-01-19T05:32:41.847Z,0.60
2023-01-19T05:35:10.144Z,0.60
2023-01-19T05:37:37.257Z,0.60
2023-01-19T05:40:06.324Z,0.70
2023-01-19T05:42:33.763Z,0.70
2023-01-19T05:45:02.217Z,0.70
2023-01-19T05:47:30.391Z,0.60
2023-01-19T05:49:57.366Z,0.60
2023-01-19T05:52:25.175Z,0.60
2023-01-19T05:54:52.355Z,0.60
2023-01-19T05:57:19.432Z,0.60
2023-01-19T05:59:46.458Z,0.60
2023-01-19T06:02:14.928Z,0.60
2023-01-19T06:04:42.024Z,0.60
2023-01-19T06:07:09.056Z,0.70
2023-01-19T06:09:36.136Z,0.70
2023-01-19T06:12:03.392Z,0.70
2023-01-19T06:14:30.684Z,0.70
2023-01-19T06:16:57.924Z,0.80
2023-01-19T06:19:26.527Z,0.80
2023-01-19T06:21:53.526Z,0.90
2023-01-19T06:24:20.663Z,0.90
2023-01-19T06:26:47.748Z,0.80
2023-01-19T06:29:15.102Z,0.90
2023-01-19T06:31:42.340Z,0.90
2023-01-19T06:34:10.046Z,0.90
2023-01-19T06:36:38.867Z,0.90
2023-01-19T06:39:06.173Z,0.90
2023-01-19T06:41:33.639Z,0.80
2023-01-19T06:44:00.891Z,0.80
2023-01-19T06:46:28.594Z,1.00
2023-01-19T06:48:55.691Z,1.00
2023-01-19T06:51:23.963Z,1.00
2023-01-19T06:53:52.302Z,1.00
2023-01-19T06:56:19.402Z,0.90
2023-01-19T06:58:47.628Z,0.90
2023-01-19T07:01:15.109Z,0.80
2023-01-19T07:03:42.366Z,0.70
2023-01-19T07:06:09.875Z,0.80
2023-01-19T07:08:38.039Z,0.90
2023-01-19T07:11:25.881Z,0.90
2023-01-19T07:13:55.964Z,1.00
2023-01-19T07:16:23.596Z,0.80
2023-01-19T07:18:50.863Z,0.80
2023-01-19T07:21:18.448Z,0.80
2023-01-19T07:23:49.547Z,0.80
2023-01-19T07:26:21.089Z,0.80
2023-01-19T07:28:48.568Z,0.80
2023-01-19T07:31:16.356Z,0.70
2023-01-19T07:33:43.664Z,0.50
2023-01-19T07:36:11.128Z,0.40
2023-01-19T07:38:38.480Z,0.50
2023-01-19T07:41:08.487Z,0.60
2023-01-19T07:43:36.990Z,0.60
2023-01-19T07:46:06.822Z,0.50
2023-01-19T07:48:34.307Z,0.60
2023-01-19T07:51:05.361Z,0.70
2023-01-19T07:53:32.743Z,0.80
2023-01-19T07:55:59.784Z,0.90
2023-01-19T07:58:27.265Z,0.90
2023-01-19T08:00:55.905Z,0.90
2023-01-19T08:03:23.288Z,0.80
2023-01-19T08:05:52.143Z,0.60
2023-01-19T08:08:19.873Z,0.60
2023-01-19T08:10:50.614Z,0.60
2023-01-19T08:13:17.667Z,0.70
2023-01-19T08:15:45.189Z,0.60
2023-01-19T08:18:15.546Z,0.50
2023-01-19T08:20:42.733Z,0.60
2023-01-19T08:23:10.229Z,0.80
2023-01-19T08:25:42.336Z,0.80
2023-01-19T08:28:11.200Z,0.70
2023-01-19T08:30:39.147Z,0.60
2023-01-19T08:33:09.395Z,0.60
2023-01-19T08:35:40.831Z,0.60
2023-01-19T08:38:09.894Z,0.70
2023-01-19T08:40:39.689Z,0.90
2023-01-19T08:43:09.245Z,1.00
2023-01-19T08:45:38.562Z,1.10
2023-01-19T08:48:06.566Z,1.10
2023-01-19T08:50:34.811Z,1.40
2023-01-19T08:53:06.985Z,1.60
2023-01-19T08:55:35.758Z,1.70
2023-01-19T08:58:04.754Z,1.80
2023-01-19T09:00:34.345Z,1.90
2023-01-19T09:03:04.137Z,2.00
2023-01-19T09:05:37.173Z,2.20
2023-01-19T09:08:09.405Z,2.40
2023-01-19T09:10:37.973Z,2.60
2023-01-19T09:13:08.647Z,2.70
2023-01-19T09:15:37.771Z,2.80
2023-01-19T09:18:13.830Z,2.90
2023-01-19T09:20:43.698Z,2.90
2023-01-19T09:23:14.084Z,3.00
2023-01-19T09:25:45.286Z,3.00
2023-01-19T09:28:15.443Z,3.10
2023-01-19T09:30:44.783Z,3.10
2023-01-19T09:33:15.339Z,3.20
2023-01-19T09:35:45.173Z,3.20
2023-01-19T09:38:15.638Z,3.30
2023-01-19T09:40:45.323Z,3.30
2023-01-19T09:43:17.724Z,3.30
2023-01-19T09:45:51.865Z,3.40
2023-01-19T09:48:34.990Z,3.50
2023-01-19T09:51:07.661Z,3.50
2023-01-19T09:53:51.872Z,3.50
2023-01-19T09:56:21.112Z,3.50
2023-01-19T09:58:51.037Z,3.60
2023-01-19T10:01:35.391Z,3.60
2023-01-19T10:04:29.465Z,3.60
2023-01-19T10:07:16.899Z,3.60
2023-01-19T10:10:13.976Z,3.50
2023-01-19T10:12:55.611Z,3.50
2023-01-19T10:15:36.814Z,3.50
2023-01-19T10:18:17.753Z,3.50
2023-01-19T10:20:51.096Z,3.40
2023-01-19T10:23:38.675Z,3.40
2023-01-19T10:26:13.881Z,3.40
2023-01-19T10:28:42.196Z,3.40
2023-01-19T10:31:11.770Z,3.40
2023-01-19T10:33:39.322Z,3.40
2023-01-19T10:36:17.688Z,3.40
2023-01-19T10:38:46.098Z,3.50
2023-01-19T10:41:20.404Z,3.50
2023-01-19T10:43:48.846Z,3.40
2023-01-19T10:46:23.421Z,3.40
2023-01-19T10:48:52.864Z,3.50
2023-01-19T10:51:20.523Z,3.50
2023-01-19T10:54:01.063Z,3.60
2023-01-19T10:56:34.217Z,3.60
2023-01-19T10:59:06.991Z,3.60
2023-01-19T11:01:37.127Z,3.60
2023-01-19T11:04:28.828Z,3.60
2023-01-19T11:07:14.327Z,3.70
2023-01-19T11:09:41.759Z,3.70
2023-01-19T11:12:21.740Z,3.70
2023-01-19T11:14:51.287Z,3.70
2023-01-19T11:17:22.801Z,3.70
2023-01-19T11:19:59.778Z,3.70
2023-01-19T11:22:30.708Z,3.70
2023-01-19T11:25:04.209Z,3.80
2023-01-19T11:27:36.704Z,3.80
2023-01-19T11:30:13.820Z,3.80
2023-01-19T11:32:42.136Z,3.80
2023-01-19T11:35:39.246Z,3.80
2023-01-19T11:38:18.395Z,3.80
2023-01-19T11:40:53.789Z,3.80
2023-01-19T11:43:24.808Z,3.80
2023-01-19T11:45:52.706Z,3.70
2023-01-19T11:48:29.219Z,3.80
2023-01-19T11:51:00.271Z,3.80
2023-01-19T11:53:33.402Z,3.70
2023-01-19T11:56:07.086Z,3.80
2023-01-19T11:58:39.968Z,3.90
2023-01-19T12:01:20.840Z,3.90
2023-01-19T12:03:57.620Z,4.00
2023-01-19T12:06:31.134Z,4.00
2023-01-19T12:09:02.401Z,4.10
2023-01-19T12:11:35.670Z,4.10
2023-01-19T12:14:07.107Z,4.20
2023-01-19T12:16:38.046Z,4.20
2023-01-19T12:19:13.750Z,4.20
2023-01-19T12:21:41.701Z,4.20
2023-01-19T12:24:17.740Z,4.20
2023-01-19T12:26:54.282Z,4.30
2023-01-19T12:29:27.829Z,4.30
2023-01-19T12:32:29.973Z,4.30
2023-01-19T12:34:57.982Z,4.30
2023-01-19T12:37:36.117Z,4.30
2023-01-19T12:40:18.936Z,4.30
2023-01-19T12:42:52.616Z,4.30
2023-01-19T12:45:25.743Z,4.50
2023-01-19T12:47:56.365Z,4.60
2023-01-19T12:50:29.659Z,4.70
2023-01-19T12:53:04.265Z,4.60
2023-01-19T12:55:33.991Z,4.60
2023-01-19T12:58:08.244Z,4.60
2023-01-19T13:00:39.776Z,4.50
2023-01-19T13:03:46.742Z,4.40
2023-01-19T13:06:14.544Z,4.40
2023-01-19T13:09:00.073Z,4.40
2023-01-19T13:11:32.582Z,4.40
2023-01-19T13:14:36.464Z,4.40
2023-01-19T13:17:33.157Z,4.50
2023-01-19T13:20:25.719Z,4.50
2023-01-19T13:23:23.939Z,4.50
2023-01-19T13:26:08.526Z,4.60
2023-01-19T13:28:41.365Z,4.60
2023-01-19T13:31:10.176Z,4.60
2023-01-19T13:33:53.965Z,4.60
2023-01-19T13:36:33.897Z,4.60
2023-01-19T13:39:05.161Z,4.60
2023-01-19T13:41:37.516Z,4.70
2023-01-19T13:44:12.686Z,4.70
2023-01-19T13:46:40.678Z,4.60
2023-01-19T13:49:18.421Z,4.60
2023-01-19T13:51:45.576Z,4.60
2023-01-19T13:54:18.138Z,4.60
2023-01-19T13:56:50.280Z,4.60
2023-01-19T13:59:17.715Z,4.70
2023-01-19T14:01:46.972Z,4.60
2023-01-19T14:04:28.706Z,4.60
2023-01-19T14:06:59.075Z,4.60
2023-01-19T14:09:26.382Z,4.70
2023-01-19T14:12:13.964Z,4.70
2023-01-19T14:14:42.563Z,4.70
2023-01-19T14:17:24.435Z,4.70
2023-01-19T14:19:55.879Z,4.70
2023-01-19T14:22:38.952Z,4.70
2023-01-19T14:25:29.404Z,4.70
2023-01-19T14:28:40.875Z,4.80
2023-01-19T14:31:23.520Z,4.80
2023-01-19T14:33:53.134Z,4.80
2023-01-19T14:36:29.441Z,4.80
2023-01-19T14:38:59.321Z,4.80
2023-01-19T14:41:35.033Z,4.80
2023-01-19T14:44:08.311Z,4.80
2023-01-19T14:46:35.576Z,4.80
2023-01-19T14:49:05.837Z,4.80
2023-01-19T14:51:34.489Z,4.90
2023-01-19T14:54:03.046Z,4.90
2023-01-19T14:56:34.029Z,4.80
2023-01-19T14:59:05.611Z,4.90
2023-01-19T15:01:33.147Z,4.80
2023-01-19T15:04:00.522Z,4.80
2023-01-19T15:06:28.093Z,4.80
2023-01-19T15:08:56.959Z,4.80
2023-01-19T15:11:27.510Z,4.80
2023-01-19T15:13:55.721Z,4.80
2023-01-19T15:16:24.940Z,4.80
2023-01-19T15:18:52.312Z,4.70
2023-01-19T15:21:23.859Z,4.80
2023-01-19T15:23:50.951Z,4.80
2023-01-19T15:26:21.421Z,4.80
2023-01-19T15:28:53.126Z,4.80
2023-01-19T15:31:23.164Z,4.80
2023-01-19T15:33:50.591Z,4.90
2023-01-19T15:36:21.269Z,4.80
2023-01-19T15:38:50.965Z,4.80
2023-01-19T15:41:25.631Z,4.80
2023-01-19T15:43:53.354Z,4.90
2023-01-19T15:46:21.490Z,4.80
2023-01-19T15:48:49.293Z,4.80
2023-01-19T15:51:19.167Z,4.80
2023-01-19T15:53:46.831Z,4.80
2023-01-19T15:56:16.282Z,4.80
2023-01-19T15:58:45.217Z,4.80
2023-01-19T16:01:17.185Z,4.80
2023-01-19T16:03:44.582Z,4.70
2023-01-19T16:06:13.020Z,4.70
2023-01-19T16:08:40.197Z,4.70
2023-01-19T16:11:10.472Z,4.70
2023-01-19T16:13:38.104Z,4.60
2023-01-19T16:16:16.882Z,4.60
2023-01-19T16:18:44.325Z,4.60
2023-01-19T16:21:11.862Z,4.60
2023-01-19T16:23:39.167Z,4.60
2023-01-19T16:26:22.214Z,4.60
2023-01-19T16:28:49.430Z,4.60
2023-01-19T16:31:18.231Z,4.50
2023-01-19T16:33:45.840Z,4.50
2023-01-19T16:36:32.298Z,4.50
2023-01-19T16:39:01.356Z,4.60
2023-01-19T16:41:29.056Z,4.60
2023-01-19T16:43:58.201Z,4.50
2023-01-19T16:46:29.801Z,4.50
2023-01-19T16:49:01.215Z,4.40
2023-01-19T16:51:28.589Z,4.20
2023-01-19T16:53:55.775Z,4.10
2023-01-19T16:56:22.916Z,4.00
2023-01-19T16:58:53.699Z,4.10
2023-01-19T17:01:21.369Z,4.00
2023-01-19T17:03:50.215Z,4.00
2023-01-19T17:06:20.331Z,3.80
2023-01-19T17:08:47.732Z,3.70
2023-01-19T17:11:23.322Z,3.60
2023-01-19T17:13:54.386Z,3.70
2023-01-19T17:16:21.994Z,3.60
2023-01-19T17:18:51.177Z,3.50
2023-01-19T17:21:19.487Z,3.50
2023-01-19T17:23:49.046Z,3.50
2023-01-19T17:26:17.758Z,3.60
2023-01-19T17:28:45.392Z,3.50
2023-01-19T17:31:15.364Z,3.40
2023-01-19T17:33:44.721Z,3.40
2023-01-19T17:36:15.871Z,3.40
2023-01-19T17:38:43.162Z,3.40
2023-01-19T17:41:14.427Z,3.30
2023-01-19T17:43:41.426Z,3.30
2023-01-19T17:46:08.920Z,3.10
2023-01-19T17:48:35.892Z,2.90
2023-01-19T17:51:05.114Z,2.80
2023-01-19T17:53:34.124Z,2.80
2023-01-19T17:56:04.108Z,2.80
2023-01-19T17:58:31.447Z,3.00
2023-01-19T18:00:59.050Z,3.00
2023-01-19T18:03:25.995Z,3.00
2023-01-19T18:05:54.108Z,3.00
2023-01-19T18:08:21.128Z,2.80
2023-01-19T18:10:54.718Z,2.80
2023-01-19T18:13:22.581Z,2.90
2023-01-19T18:15:49.675Z,2.80
2023-01-19T18:18:17.101Z,2.90
2023-01-19T18:20:44.716Z,3.00
2023-01-19T18:23:11.799Z,3.10
2023-01-19T18:25:39.757Z,3.20
2023-01-19T18:28:08.051Z,3.20
2023-01-19T18:30:36.735Z,3.20
2023-01-19T18:33:04.424Z,3.30
2023-01-19T18:35:31.548Z,3.30
2023-01-19T18:37:58.727Z,3.30
2023-01-19T18:40:26.485Z,3.30
2023-01-19T18:42:53.419Z,3.20
2023-01-19T18:45:21.776Z,3.20
2023-01-19T18:47:48.746Z,3.10
2023-01-19T18:50:17.060Z,3.10
2023-01-19T18:52:46.436Z,2.80
2023-01-19T18:55:13.911Z,2.80
2023-01-19T18:57:40.993Z,3.00
2023-01-19T19:00:10.320Z,3.10
2023-01-19T19:02:38.756Z,3.00
2023-01-19T19:05:07.045Z,3.20
2023-01-19T19:07:34.214Z,3.20
2023-01-19T19:10:01.199Z,3.20
2023-01-19T19:12:28.130Z,3.20
2023-01-19T19:14:55.284Z,3.10
2023-01-19T19:17:22.235Z,3.00
2023-01-19T19:19:50.757Z,3.00
2023-01-19T19:22:17.722Z,2.90
2023-01-19T19:24:44.755Z,2.90
2023-01-19T19:27:14.138Z,2.90
2023-01-19T19:29:41.384Z,2.90
2023-01-19T19:32:08.290Z,2.90
2023-01-19T19:34:35.384Z,3.00
2023-01-19T19:37:03.720Z,3.10
2023-01-19T19:39:30.681Z,3.00
2023-01-19T19:41:57.797Z,2.90
2023-01-19T19:44:24.778Z,2.90
2023-01-19T19:46:51.856Z,3.00
2023-01-19T19:49:21.494Z,3.00
2023-01-19T19:51:48.772Z,2.90
2023-01-19T19:54:17.194Z,3.00
2023-01-19T19:56:45.829Z,2.90
2023-01-19T19:59:13.013Z,2.90
2023-01-19T20:01:40.099Z,3.00
2023-01-19T20:04:10.912Z,3.10
2023-01-19T20:06:41.633Z,3.10
2023-01-19T20:09:10.828Z,3.00
2023-01-19T20:11:39.466Z,3.00
2023-01-19T20:14:07.445Z,3.10
2023-01-19T20:16:35.461Z,3.20
2023-01-19T20:19:03.801Z,3.20
2023-01-19T20:21:33.899Z,3.30
2023-01-19T20:24:03.818Z,3.40
2023-01-19T20:26:35.992Z,3.30
2023-01-19T20:29:10.416Z,3.40
2023-01-19T20:31:41.285Z,3.40
2023-01-19T20:34:11.420Z,3.40
2023-01-19T20:36:39.314Z,3.50
2023-01-19T20:39:23.467Z,3.40
2023-01-19T20:41:52.374Z,3.20
2023-01-19T20:44:23.611Z,3.10
2023-01-19T20:46:51.471Z,3.10
2023-01-19T20:49:19.131Z,3.10
2023-01-19T20:51:46.856Z,3.00
2023-01-19T20:54:17.373Z,2.90
2023-01-19T20:56:44.503Z,3.00
2023-01-19T20:59:12.494Z,3.00
2023-01-19T21:01:41.850Z,2.90
2023-01-19T21:04:09.764Z,3.00
2023-01-19T21:06:38.250Z,3.10
2023-01-19T21:09:05.458Z,2.90
2023-01-19T21:11:32.821Z,2.90
2023-01-19T21:14:00.001Z,2.90
2023-01-19T21:16:29.778Z,2.90
2023-01-19T21:18:58.278Z,2.90
2023-01-19T21:21:31.194Z,2.90
2023-01-19T21:24:00.224Z,2.90
2023-01-19T21:26:29.758Z,2.80
2023-01-19T21:28:57.512Z,2.80
2023-01-19T21:31:27.220Z,2.90
2023-01-19T21:33:54.952Z,2.90
2023-01-19T21:36:24.547Z,2.90
2023-01-19T21:38:52.514Z,2.80
2023-01-19T21:41:20.204Z,2.90
2023-01-19T21:43:47.585Z,2.90
2023-01-19T21:46:19.475Z,3.00
2023-01-19T21:48:47.211Z,2.90
2023-01-19T21:51:15.466Z,2.70
2023-01-19T21:53:44.062Z,2.70
2023-01-19T21:56:11.724Z,2.50
2023-01-19T21:58:39.059Z,2.40
2023-01-19T22:01:13.790Z,2.40
2023-01-19T22:03:43.250Z,2.40
2023-01-19T22:06:13.498Z,2.50
2023-01-19T22:08:44.737Z,2.50
2023-01-19T22:11:14.605Z,2.50
2023-01-19T22:13:42.683Z,2.40
2023-01-19T22:16:13.461Z,2.30
2023-01-19T22:18:43.593Z,2.30
2023-01-19T22:21:14.167Z,2.20
2023-01-19T22:23:43.666Z,2.10
2023-01-19T22:26:12.241Z,2.00
2023-01-19T22:28:39.613Z,2.00
2023-01-19T22:31:09.428Z,1.90
2023-01-19T22:33:37.409Z,1.90
2023-01-19T22:36:14.068Z,1.90
2023-01-19T22:38:43.887Z,1.90
2023-01-19T22:41:16.405Z,1.90
2023-01-19T22:43:44.552Z,1.90
2023-01-19T22:46:12.433Z,1.90
2023-01-19T22:48:40.531Z,1.80
2023-01-19T22:51:08.050Z,1.80
2023-01-19T22:53:35.364Z,1.70
2023-01-19T22:56:13.136Z,1.60
2023-01-19T22:58:41.198Z,1.70
2023-01-19T23:01:09.466Z,1.70
2023-01-19T23:03:38.101Z,1.70
2023-01-19T23:06:06.790Z,1.80
2023-01-19T23:08:35.320Z,1.70
2023-01-19T23:11:06.218Z,1.60
2023-01-19T23:13:35.007Z,1.40
2023-01-19T23:16:02.455Z,1.40
2023-01-19T23:18:30.324Z,1.40
2023-01-19T23:21:03.237Z,1.40
2023-01-19T23:23:30.626Z,1.40
2023-01-19T23:26:01.388Z,1.60
2023-01-19T23:28:28.930Z,1.50
2023-01-19T23:30:57.858Z,1.40
2023-01-19T23:33:25.231Z,1.40
2023-01-19T23:35:54.644Z,1.40
2023-01-19T23:38:22.667Z,1.40
2023-01-19T23:40:49.905Z,1.40
2023-01-19T23:43:17.081Z,1.30
2023-01-19T23:45:44.199Z,1.20
2023-01-19T23:48:12.957Z,1.20
2023-01-19T23:50:41.057Z,1.20
2023-01-19T23:53:08.316Z,1.20
2023-01-19T23:55:35.444Z,1.20
2023-01-19T23:58:02.713Z,1.20
